Time,TemperatureF,DewpointF,PressureIn,WindDirection,WindDirectionDegrees,WindSpeedMPH,WindSpeedGustMPH,Humidity,HourlyPrecipIn,Conditions,Clouds,dailyrainin,SolarRadiationWatts/m^2,SoftwareType,DateUTC
2013-07-29 00:02:00,59.0,39.0,-100.00,ENE,72,7.0,12.0,47,0.00,,,0.00,0.000000,,2013-07-29 07:02:00,
2013-07-29 00:23:00,59.0,39.0,-100.00,ENE,72,7.0,12.0,47,0.00,,,0.00,0.000000,,2013-07-29 07:23:00,
2013-07-29 00:33:00,59.0,39.0,-100.00,ENE,72,7.0,12.0,47,0.00,,,0.00,0.000000,,2013-07-29 07:33:00,
2013-07-29 00:43:00,59.0,39.0,-100.00,ENE,72,7.0,12.0,47,0.00,,,0.00,0.000000,,2013-07-29 07:43:00,
2013-07-29 00:53:00,59.0,39.0,-100.00,ENE,72,7.0,12.0,47,0.00,,,0.00,0.000000,,2013-07-29 07:53:00,
2013-07-29 01:02:00,59.0,37.0,-100.00,East,87,5.0,9.0,44,0.00,,,0.00,1.000000,,2013-07-29 08:02:00,
2013-07-29 01:33:00,59.0,37.0,-100.00,East,87,5.0,9.0,44,0.00,,,0.00,1.000000,,2013-07-29 08:33:00,
2013-07-29 01:42:00,59.0,37.0,-100.00,East,87,5.0,9.0,44,0.00,,,0.00,1.000000,,2013-07-29 08:42:00,
2013-07-29 01:52:00,59.0,37.0,-100.00,East,87,5.0,9.0,44,0.00,,,0.00,1.000000,,2013-07-29 08:52:00,
2013-07-29 02:02:00,59.0,34.0,-100.00,East,96,6.0,8.0,39,0.00,,,0.00,0.000000,,2013-07-29 09:02:00,
2013-07-29 02:33:00,59.0,34.0,-100.00,East,96,6.0,8.0,39,0.00,,,0.00,0.000000,,2013-07-29 09:33:00,
2013-07-29 02:43:00,59.0,34.0,-100.00,East,96,6.0,8.0,39,0.00,,,0.00,0.000000,,2013-07-29 09:43:00,
2013-07-29 02:53:00,59.0,34.0,-100.00,East,96,6.0,8.0,39,0.00,,,0.00,0.000000,,2013-07-29 09:53:00,
2013-07-29 03:02:00,55.0,37.0,-100.00,South,179,4.0,7.0,50,0.00,,,0.00,1.000000,,2013-07-29 10:02:00,
2013-07-29 03:38:00,55.0,37.0,-100.00,South,179,4.0,7.0,50,0.00,,,0.00,1.000000,,2013-07-29 10:38:00,
2013-07-29 03:48:00,55.0,37.0,-100.00,South,179,4.0,7.0,50,0.00,,,0.00,1.000000,,2013-07-29 10:48:00,
2013-07-29 03:55:00,55.0,37.0,-100.00,South,179,4.0,7.0,50,0.00,,,0.00,1.000000,,2013-07-29 10:55:00,
2013-07-29 04:02:00,54.0,38.0,-100.00,SW,229,3.0,5.0,54,0.00,,,0.00,0.000000,,2013-07-29 11:02:00,
2013-07-29 04:38:00,54.0,38.0,-100.00,SW,229,3.0,5.0,54,0.00,,,0.00,0.000000,,2013-07-29 11:38:00,
2013-07-29 04:47:00,54.0,38.0,-100.00,SW,229,3.0,5.0,54,0.00,,,0.00,0.000000,,2013-07-29 11:47:00,
2013-07-29 05:02:00,52.0,39.0,-100.00,SW,217,3.0,6.0,61,0.00,,,0.00,0.000000,,2013-07-29 12:02:00,
2013-07-29 05:37:00,52.0,39.0,-100.00,SW,217,3.0,6.0,61,0.00,,,0.00,0.000000,,2013-07-29 12:37:00,
2013-07-29 05:48:00,52.0,39.0,-100.00,SW,217,3.0,6.0,61,0.00,,,0.00,0.000000,,2013-07-29 12:48:00,
2013-07-29 05:55:00,52.0,39.0,-100.00,SW,217,3.0,6.0,61,0.00,,,0.00,0.000000,,2013-07-29 12:55:00,
2013-07-29 06:38:00,51.0,38.0,-100.00,SSW,198,3.0,4.0,61,0.00,,,-99.99,3.000000,,2013-07-29 13:38:00,
2013-07-29 06:45:00,51.0,38.0,-100.00,SSW,198,3.0,4.0,61,0.00,,,-99.99,3.000000,,2013-07-29 13:45:00,
2013-07-29 07:36:00,54.0,38.0,-100.00,West,259,4.0,6.0,54,0.00,,,0.00,78.000000,,2013-07-29 14:36:00,
2013-07-29 08:02:00,62.0,39.0,-100.00,SW,230,2.0,5.0,43,0.00,,,0.00,227.000000,,2013-07-29 15:02:00,
2013-07-29 08:38:00,62.0,39.0,-100.00,SW,230,2.0,5.0,43,0.00,,,0.00,227.000000,,2013-07-29 15:38:00,
2013-07-29 08:45:00,62.0,39.0,-100.00,SW,230,2.0,5.0,43,0.00,,,0.00,227.000000,,2013-07-29 15:45:00,
2013-07-29 08:55:00,62.0,39.0,-100.00,SW,230,2.0,5.0,43,0.00,,,0.00,227.000000,,2013-07-29 15:55:00,
2013-07-29 09:02:00,68.0,39.0,-100.00,West,276,4.0,6.0,34,0.00,,,0.00,415.000000,,2013-07-29 16:02:00,
2013-07-29 09:40:00,68.0,39.0,-100.00,West,276,4.0,6.0,34,0.00,,,0.00,415.000000,,2013-07-29 16:40:00,
2013-07-29 09:47:00,68.0,39.0,-100.00,West,276,4.0,6.0,34,0.00,,,0.00,415.000000,,2013-07-29 16:47:00,
2013-07-29 09:57:00,68.0,39.0,-100.00,West,276,4.0,6.0,34,0.00,,,0.00,415.000000,,2013-07-29 16:57:00,
2013-07-29 10:02:00,71.0,38.0,-100.00,SW,229,3.0,9.0,30,0.00,,,0.00,571.000000,,2013-07-29 17:02:00,
2013-07-29 10:45:00,71.0,38.0,-100.00,SW,229,3.0,9.0,30,0.00,,,0.00,571.000000,,2013-07-29 17:45:00,
2013-07-29 10:58:00,71.0,38.0,-100.00,SW,229,3.0,9.0,30,0.00,,,0.00,571.000000,,2013-07-29 17:58:00,
2013-07-29 11:02:00,75.0,38.0,-100.00,NNE,26,4.0,8.0,26,0.00,,,0.00,698.000000,,2013-07-29 18:02:00,
2013-07-29 11:38:00,75.0,38.0,-100.00,NNE,26,4.0,8.0,26,0.00,,,0.00,698.000000,,2013-07-29 18:38:00,
2013-07-29 11:47:00,75.0,38.0,-100.00,NNE,26,4.0,8.0,26,0.00,,,0.00,698.000000,,2013-07-29 18:47:00,
2013-07-29 11:57:00,75.0,38.0,-100.00,NNE,26,4.0,8.0,26,0.00,,,0.00,698.000000,,2013-07-29 18:57:00,
2013-07-29 12:02:00,79.0,37.0,-100.00,NNE,16,4.0,10.0,22,0.00,,,-99.99,841.000000,,2013-07-29 19:02:00,
2013-07-29 12:47:00,79.0,37.0,-100.00,NNE,16,4.0,10.0,22,0.00,,,-99.99,841.000000,,2013-07-29 19:47:00,
2013-07-29 12:56:00,79.0,37.0,-100.00,NNE,16,4.0,10.0,22,0.00,,,-99.99,841.000000,,2013-07-29 19:56:00,
2013-07-29 13:02:00,81.0,35.0,-100.00,NW,318,6.0,12.0,19,0.00,,,0.00,951.000000,,2013-07-29 20:02:00,
2013-07-29 13:38:00,81.0,35.0,-100.00,NW,318,6.0,12.0,19,0.00,,,0.00,951.000000,,2013-07-29 20:38:00,
2013-07-29 13:48:00,81.0,35.0,-100.00,NW,318,6.0,12.0,19,0.00,,,0.00,951.000000,,2013-07-29 20:48:00,
2013-07-29 13:58:00,81.0,35.0,-100.00,NW,318,6.0,12.0,19,0.00,,,0.00,951.000000,,2013-07-29 20:58:00,
2013-07-29 14:02:00,82.0,34.0,-100.00,North,359,7.0,17.0,18,0.00,,,0.00,1001.000000,,2013-07-29 21:02:00,
2013-07-29 14:37:00,82.0,34.0,-100.00,North,359,7.0,17.0,18,0.00,,,0.00,1001.000000,,2013-07-29 21:37:00,
2013-07-29 14:49:00,82.0,34.0,-100.00,North,359,7.0,17.0,18,0.00,,,0.00,1001.000000,,2013-07-29 21:49:00,
2013-07-29 14:58:00,82.0,34.0,-100.00,North,359,7.0,17.0,18,0.00,,,0.00,1001.000000,,2013-07-29 21:58:00,
2013-07-29 15:02:00,82.0,31.0,-100.00,North,1,7.0,13.0,16,0.00,,,0.00,784.000000,,2013-07-29 22:02:00,
2013-07-29 15:45:00,82.0,31.0,-100.00,North,1,7.0,13.0,16,0.00,,,0.00,784.000000,,2013-07-29 22:45:00,
2013-07-29 15:55:00,82.0,31.0,-100.00,North,1,7.0,13.0,16,0.00,,,0.00,784.000000,,2013-07-29 22:55:00,
2013-07-29 16:35:00,82.0,31.0,-100.00,North,349,7.0,12.0,16,0.00,,,0.00,550.000000,,2013-07-29 23:35:00,
2013-07-29 16:46:00,82.0,31.0,-100.00,North,349,7.0,12.0,16,0.00,,,0.00,550.000000,,2013-07-29 23:46:00,
2013-07-29 16:55:00,82.0,31.0,-100.00,North,349,7.0,12.0,16,0.00,,,0.00,550.000000,,2013-07-29 23:55:00,
2013-07-29 17:02:00,83.0,31.0,-100.00,NNE,12,7.0,12.0,15,0.00,,,0.00,406.000000,,2013-07-30 00:02:00,
2013-07-29 17:35:00,83.0,31.0,-100.00,NNE,12,7.0,12.0,15,0.00,,,0.00,406.000000,,2013-07-30 00:35:00,
2013-07-29 17:50:00,83.0,31.0,-100.00,NNE,12,7.0,12.0,15,0.00,,,0.00,406.000000,,2013-07-30 00:50:00,
2013-07-29 17:55:00,83.0,31.0,-100.00,NNE,12,7.0,12.0,15,0.00,,,0.00,406.000000,,2013-07-30 00:55:00,
2013-07-29 18:02:00,82.0,31.0,-100.00,NNE,18,6.0,13.0,16,0.00,,,0.00,313.000000,,2013-07-30 01:02:00,
2013-07-29 18:38:00,82.0,31.0,-100.00,NNE,18,6.0,13.0,16,0.00,,,0.00,313.000000,,2013-07-30 01:38:00,
2013-07-29 18:46:00,82.0,31.0,-100.00,NNE,18,6.0,13.0,16,0.00,,,0.00,313.000000,,2013-07-30 01:46:00,
2013-07-29 19:38:00,83.0,29.0,-100.00,NNW,343,9.0,15.0,14,0.00,,,0.00,361.000000,,2013-07-30 02:38:00,
2013-07-29 19:46:00,83.0,29.0,-100.00,NNW,343,9.0,15.0,14,0.00,,,0.00,361.000000,,2013-07-30 02:46:00,
2013-07-29 19:55:00,83.0,29.0,-100.00,NNW,343,9.0,15.0,14,0.00,,,0.00,361.000000,,2013-07-30 02:55:00,
2013-07-29 20:02:00,77.0,38.0,-100.00,North,357,9.0,15.0,25,0.00,,,0.00,126.000000,,2013-07-30 03:02:00,
2013-07-29 20:36:00,77.0,38.0,-100.00,North,357,9.0,15.0,25,0.00,,,0.00,126.000000,,2013-07-30 03:36:00,
2013-07-29 20:46:00,77.0,38.0,-100.00,North,357,9.0,15.0,25,0.00,,,0.00,126.000000,,2013-07-30 03:46:00,
2013-07-29 20:54:00,77.0,38.0,-100.00,North,357,9.0,15.0,25,0.00,,,0.00,126.000000,,2013-07-30 03:54:00,
2013-07-29 21:02:00,72.0,46.0,-100.00,NNW,343,6.0,14.0,39,0.00,,,0.00,8.000000,,2013-07-30 04:02:00,
2013-07-29 21:33:00,72.0,46.0,-100.00,NNW,343,6.0,14.0,39,0.00,,,0.00,8.000000,,2013-07-30 04:33:00,
2013-07-29 21:43:00,72.0,46.0,-100.00,NNW,343,6.0,14.0,39,0.00,,,0.00,8.000000,,2013-07-30 04:43:00,
2013-07-29 21:53:00,72.0,46.0,-100.00,NNW,343,6.0,14.0,39,0.00,,,0.00,8.000000,,2013-07-30 04:53:00,
2013-07-29 22:02:00,68.0,45.0,-100.00,NNE,23,5.0,9.0,43,0.00,,,0.00,0.000000,,2013-07-30 05:02:00,
2013-07-29 22:33:00,68.0,45.0,-100.00,NNE,23,5.0,9.0,43,0.00,,,0.00,0.000000,,2013-07-30 05:33:00,
2013-07-29 22:45:00,68.0,45.0,-100.00,NNE,23,5.0,9.0,43,0.00,,,0.00,0.000000,,2013-07-30 05:45:00,
2013-07-29 22:52:00,68.0,45.0,-100.00,NNE,23,5.0,9.0,43,0.00,,,0.00,0.000000,,2013-07-30 05:52:00,
2013-07-29 23:02:00,65.0,44.0,-100.00,NE,52,3.0,8.0,46,0.00,,,0.00,1.000000,,2013-07-30 06:02:00,
2013-07-29 23:33:00,65.0,44.0,-100.00,NE,52,3.0,8.0,46,0.00,,,0.00,1.000000,,2013-07-30 06:33:00,
2013-07-29 23:43:00,65.0,44.0,-100.00,NE,52,3.0,8.0,46,0.00,,,0.00,1.000000,,2013-07-30 06:43:00,
2013-07-29 23:53:00,65.0,44.0,-100.00,NE,52,3.0,8.0,46,0.00,,,0.00,1.000000,,2013-07-30 06:53:00,